Time;durP1;ratioP1;P1;durP2;ratioP2;P2;SDS_P1;SDS_P2;PMS_P1;PMS_P2;Temp;Humidity;BMP_temperature;BMP_pressure;BME280_temperature;BME280_humidity;BME280_pressure;Samples;Min_cycle;Max_cycle;Signal;HPM_P1;HPM_P2
2023/05/05 00:00:23;;;;;;;;;1.00;1.00;;;;;;;;2062895;27;2727408;-74
2023/05/05 00:01:36;;;;;;;;;1.00;1.00;;;;;;;;2039852;27;2729924;-74
2023/05/05 00:02:49;;;;;;;;;0.83;0.83;;;;;;;;2046705;27;2721105;-74
2023/05/05 00:04:02;;;;;;;;;1.17;1.17;;;;;;;;2046324;27;2730505;-74
2023/05/05 00:05:15;;;;;;;;;2.00;0.17;;;;;;;;2047041;27;2729469;-74
2023/05/05 00:06:28;;;;;;;;;1.00;1.00;;;;;;;;2047380;27;2731518;-74
2023/05/05 00:07:41;;;;;;;;;2.00;2.00;;;;;;;;2037153;27;2744031;-74
2023/05/05 00:08:55;;;;;;;;;1.00;1.00;;;;;;;;2040161;27;2735685;-74
2023/05/05 00:10:08;;;;;;;;;2.00;1.00;;;;;;;;2069806;27;2723207;-74
2023/05/05 00:11:21;;;;;;;;;1.00;1.00;;;;;;;;2046783;27;2736751;-74
2023/05/05 00:12:31;;;;;;;;;2.33;2.00;;;;;;;;2039937;27;2735778;-74
2023/05/05 00:13:42;;;;;;;;;1.00;1.00;;;;;;;;2070614;27;2721099;-74
2023/05/05 00:14:55;;;;;;;;;1.33;1.33;;;;;;;;2070501;27;2733627;-74
2023/05/05 00:16:08;;;;;;;;;1.33;1.00;;;;;;;;2044616;27;2725268;-74
2023/05/05 00:17:21;;;;;;;;;2.83;1.33;;;;;;;;2070626;27;2734154;-74
2023/05/05 00:18:34;;;;;;;;;1.00;1.00;;;;;;;;2047166;27;2728893;-74
2023/05/05 00:19:48;;;;;;;;;2.00;1.00;;;;;;;;2046443;27;2727379;-74
2023/05/05 00:21:01;;;;;;;;;1.00;1.00;;;;;;;;2047509;27;2725348;-74
2023/05/05 00:22:14;;;;;;;;;1.33;1.33;;;;;;;;2039074;27;2724236;-74
2023/05/05 00:23:27;;;;;;;;;0.67;0.67;;;;;;;;2068928;27;2725273;-74
2023/05/05 00:24:40;;;;;;;;;2.00;1.83;;;;;;;;2047381;27;2733611;-74
2023/05/05 00:25:53;;;;;;;;;1.00;1.00;;;;;;;;2046646;27;2726383;-74
2023/05/05 00:27:06;;;;;;;;;0.83;0.83;;;;;;;;2047128;27;2731527;-74
2023/05/05 00:28:19;;;;;;;;;1.00;1.00;;;;;;;;2046978;27;2720054;-74
2023/05/05 00:29:32;;;;;;;;;1.67;1.00;;;;;;;;2062184;27;2725289;-74
2023/05/05 00:30:45;;;;;;;;;1.00;1.00;;;;;;;;2039832;27;2722189;-74
2023/05/05 00:31:58;;;;;;;;;2.83;1.00;;;;;;;;2039238;27;2730470;-74
2023/05/05 00:33:11;;;;;;;;;3.50;1.00;;;;;;;;2032559;27;2736762;-74
2023/05/05 00:34:24;;;;;;;;;0.67;0.00;;;;;;;;2034882;27;2726310;-74
2023/05/05 00:35:37;;;;;;;;;0.67;0.67;;;;;;;;2047024;27;2726311;-74
2023/05/05 00:36:50;;;;;;;;;1.00;1.00;;;;;;;;2030270;28;2725354;-74
2023/05/05 00:38:03;;;;;;;;;1.00;1.00;;;;;;;;2029940;27;2727377;-74
2023/05/05 00:39:16;;;;;;;;;1.00;0.83;;;;;;;;2039612;27;2731532;-74
2023/05/05 00:40:30;;;;;;;;;1.67;1.00;;;;;;;;2038873;27;2720065;-74
2023/05/05 00:41:43;;;;;;;;;0.33;0.00;;;;;;;;2063591;27;2724244;-74
2023/05/05 00:42:58;;;;;;;;;1.00;1.00;;;;;;;;2037492;27;2731516;-74
2023/05/05 00:44:11;;;;;;;;;1.33;1.00;;;;;;;;2038564;27;2722160;-74
2023/05/05 00:45:24;;;;;;;;;1.33;1.00;;;;;;;;2070106;27;2726332;-74
2023/05/05 00:46:39;;;;;;;;;1.00;1.00;;;;;;;;2039902;27;2724223;-74
2023/05/05 00:47:56;;;;;;;;;0.67;0.67;;;;;;;;2047330;27;2726326;-74
2023/05/05 00:49:09;;;;;;;;;1.00;1.00;;;;;;;;2044595;27;2725772;-74
2023/05/05 00:50:24;;;;;;;;;1.00;1.00;;;;;;;;2038386;27;2722172;-74
2023/05/05 00:51:37;;;;;;;;;1.00;1.00;;;;;;;;2059690;27;2727337;-74
2023/05/05 00:52:51;;;;;;;;;1.33;1.00;;;;;;;;2038671;27;2720065;-74
2023/05/05 00:54:04;;;;;;;;;1.00;1.00;;;;;;;;2063606;27;2725293;-74
2023/05/05 00:55:17;;;;;;;;;1.00;1.00;;;;;;;;2047178;27;2720109;-74
2023/05/05 00:56:30;;;;;;;;;2.00;0.50;;;;;;;;2062422;27;2727353;-74
2023/05/05 00:57:44;;;;;;;;;1.00;1.00;;;;;;;;2059541;27;2725307;-74
2023/05/05 00:58:58;;;;;;;;;1.33;1.00;;;;;;;;2060754;27;2732561;-74
2023/05/05 01:00:11;;;;;;;;;0.83;0.83;;;;;;;;2039714;27;2724228;-74
2023/05/05 01:01:24;;;;;;;;;1.17;1.17;;;;;;;;2068431;27;2726399;-74
2023/05/05 01:02:37;;;;;;;;;0.17;0.17;;;;;;;;2046919;27;2729461;-74
2023/05/05 01:03:50;;;;;;;;;1.00;1.00;;;;;;;;2060926;27;2733619;-74
2023/05/05 01:05:04;;;;;;;;;1.17;1.00;;;;;;;;2038243;27;2737804;-74
2023/05/05 01:06:29;;;;;;;;;0.83;0.83;;;;;;;;2037948;27;2731547;-74
2023/05/05 01:07:42;;;;;;;;;2.00;1.33;;;;;;;;2041295;27;2735705;-74
2023/05/05 01:09:07;;;;;;;;;2.00;1.17;;;;;;;;2037768;27;2727354;-74
2023/05/05 01:10:23;;;;;;;;;1.50;1.00;;;;;;;;2040881;27;2731530;-74
2023/05/05 01:11:44;;;;;;;;;2.17;1.00;;;;;;;;2063265;27;2720049;-74
2023/05/05 01:13:15;;;;;;;;;2.67;1.00;;;;;;;;2030934;27;2733600;-74
2023/05/05 01:14:39;;;;;;;;;1.50;1.00;;;;;;;;2037701;27;2739909;-74
2023/05/05 01:16:00;;;;;;;;;2.33;1.50;;;;;;;;2039068;27;2729449;-74
2023/05/05 01:17:16;;;;;;;;;1.17;1.17;;;;;;;;2042453;27;2729989;-74
2023/05/05 01:18:35;;;;;;;;;2.83;1.00;;;;;;;;2038212;27;2726334;-74
2023/05/05 01:19:57;;;;;;;;;1.17;1.00;;;;;;;;2063000;27;2731552;-74
2023/05/05 01:21:18;;;;;;;;;2.00;1.00;;;;;;;;2034202;27;2726303;-74
2023/05/05 01:22:36;;;;;;;;;1.50;1.00;;;;;;;;2054453;27;2730010;-74
2023/05/05 01:24:09;;;;;;;;;2.50;1.50;;;;;;;;2038561;27;2735700;-74
2023/05/05 01:25:25;;;;;;;;;1.50;0.83;;;;;;;;2038325;27;2724231;-74
2023/05/05 01:26:58;;;;;;;;;2.50;1.00;;;;;;;;2031214;27;2733610;-74
2023/05/05 01:28:29;;;;;;;;;1.17;1.00;;;;;;;;2042690;27;2722161;-74
2023/05/05 01:30:07;;;;;;;;;1.50;1.50;;;;;;;;2060316;27;2742995;-74
2023/05/05 01:31:33;;;;;;;;;2.33;1.83;;;;;;;;2034202;27;2720052;-74
2023/05/05 01:32:49;;;;;;;;;1.00;0.33;;;;;;;;2036623;27;2725280;-74
2023/05/05 01:34:04;;;;;;;;;1.33;1.33;;;;;;;;2038851;27;2728399;-74
2023/05/05 01:35:19;;;;;;;;;0.17;0.17;;;;;;;;2047240;27;2725281;-74
2023/05/05 01:36:37;;;;;;;;;2.00;1.00;;;;;;;;2037377;27;2738830;-74
2023/05/05 01:38:08;;;;;;;;;1.00;1.00;;;;;;;;2039876;27;2728390;-74
2023/05/05 01:39:22;;;;;;;;;3.17;2.17;;;;;;;;2061692;27;2725255;-74
2023/05/05 01:40:37;;;;;;;;;1.33;1.33;;;;;;;;2039374;27;2725277;-74
2023/05/05 01:41:53;;;;;;;;;1.00;1.00;;;;;;;;2035719;27;2733591;-74
2023/05/05 01:43:08;;;;;;;;;1.00;1.00;;;;;;;;2037873;27;2725262;-74
2023/05/05 01:44:21;;;;;;;;;1.67;1.50;;;;;;;;2042748;27;2748242;-74
2023/05/05 01:45:38;;;;;;;;;2.67;2.00;;;;;;;;2043968;27;2746134;-74
2023/05/05 01:46:52;;;;;;;;;2.50;1.00;;;;;;;;2045090;27;2739845;-74
2023/05/05 01:48:06;;;;;;;;;1.50;0.33;;;;;;;;2037836;27;2732055;-74
2023/05/05 01:49:16;;;;;;;;;5.00;2.00;;;;;;;;2012281;27;2750277;-74
2023/05/05 01:50:28;;;;;;;;;1.00;1.00;;;;;;;;2069011;27;2732038;-74
2023/05/05 01:51:41;;;;;;;;;1.00;1.00;;;;;;;;2060059;27;2737792;-74
2023/05/05 01:52:55;;;;;;;;;3.83;1.17;;;;;;;;2038167;27;2737812;-74
2023/05/05 01:54:09;;;;;;;;;1.17;1.17;;;;;;;;2045833;27;2726696;-74
2023/05/05 01:55:24;;;;;;;;;1.17;1.00;;;;;;;;2046995;27;2727449;-74
2023/05/05 01:56:38;;;;;;;;;1.00;1.00;;;;;;;;2038094;27;2722161;-74
2023/05/05 01:57:53;;;;;;;;;2.00;0.83;;;;;;;;2063190;27;2722141;-74
2023/05/05 01:59:06;;;;;;;;;1.83;1.00;;;;;;;;2036914;27;2727408;-74
2023/05/05 02:00:20;;;;;;;;;1.00;1.00;;;;;;;;2039328;27;2720073;-74
2023/05/05 02:01:36;;;;;;;;;0.83;0.67;;;;;;;;2046973;27;2725339;-74
2023/05/05 02:02:49;;;;;;;;;1.00;1.00;;;;;;;;2060815;27;2727371;-74
2023/05/05 02:04:03;;;;;;;;;2.00;2.00;;;;;;;;2061169;27;2746159;-74
2023/05/05 02:05:18;;;;;;;;;3.50;1.00;;;;;;;;2029395;28;2730490;-74
2023/05/05 02:06:32;;;;;;;;;2.00;1.00;;;;;;;;2033638;27;2730469;-74
2023/05/05 02:07:45;;;;;;;;;2.33;1.17;;;;;;;;2038911;27;2728446;-74
2023/05/05 02:08:59;;;;;;;;;2.33;2.33;;;;;;;;2037422;27;2741963;-74
2023/05/05 02:10:12;;;;;;;;;1.67;1.50;;;;;;;;2045708;27;2734705;-74
2023/05/05 02:11:26;;;;;;;;;1.00;1.00;;;;;;;;2045351;27;2725281;-74
2023/05/05 02:12:41;;;;;;;;;1.00;1.00;;;;;;;;2040494;27;2727420;-74
2023/05/05 02:13:52;;;;;;;;;2.00;2.00;;;;;;;;2043335;27;2746110;-74
2023/05/05 02:15:04;;;;;;;;;2.00;1.25;;;;;;;;2066607;27;2733684;-74
2023/05/05 02:16:15;;;;;;;;;1.67;1.67;;;;;;;;2011713;27;2747155;-74
2023/05/05 02:17:29;;;;;;;;;2.17;2.17;;;;;;;;2066469;27;2752377;-74
2023/05/05 02:18:41;;;;;;;;;4.00;3.00;;;;;;;;2018252;27;2750342;-74
2023/05/05 02:19:54;;;;;;;;;5.17;3.33;;;;;;;;2060259;27;2740906;-74
2023/05/05 02:21:07;;;;;;;;;5.67;5.00;;;;;;;;2036995;27;2746115;-74
2023/05/05 02:22:18;;;;;;;;;5.00;3.67;;;;;;;;2002870;27;2748314;-74
2023/05/05 02:23:29;;;;;;;;;3.00;3.00;;;;;;;;2052552;27;2741964;-74
2023/05/05 02:24:43;;;;;;;;;4.00;2.83;;;;;;;;2057532;27;2733683;-74
2023/05/05 02:26:02;;;;;;;;;2.33;2.33;;;;;;;;2010251;27;2754432;-74
2023/05/05 02:27:14;;;;;;;;;4.00;3.00;;;;;;;;2034586;27;2748269;-74
2023/05/05 02:28:38;;;;;;;;;4.00;1.83;;;;;;;;2069232;27;2739876;-74
2023/05/05 02:29:56;;;;;;;;;3.00;3.00;;;;;;;;2046509;27;2731912;-74
2023/05/05 02:31:11;;;;;;;;;3.33;2.33;;;;;;;;2032384;27;2730860;-74
2023/05/05 02:32:30;;;;;;;;;3.67;2.50;;;;;;;;2023769;28;2735709;-74
2023/05/05 02:33:45;;;;;;;;;4.00;3.67;;;;;;;;2023087;27;2741955;-74
2023/05/05 02:35:03;;;;;;;;;3.00;3.00;;;;;;;;2037871;27;2742978;-74
2023/05/05 02:36:20;;;;;;;;;1.00;1.00;;;;;;;;2070858;27;2733630;-74
2023/05/05 02:37:34;;;;;;;;;2.00;2.00;;;;;;;;2071357;27;2744055;-74
2023/05/05 02:38:46;;;;;;;;;4.00;3.00;;;;;;;;2019414;27;2752337;-74
2023/05/05 02:40:01;;;;;;;;;1.33;1.33;;;;;;;;2071440;27;2728460;-74
2023/05/05 02:41:15;;;;;;;;;2.67;2.50;;;;;;;;2070126;27;2745091;-74
2023/05/05 02:42:37;;;;;;;;;2.83;2.00;;;;;;;;2037683;27;2736766;-74
2023/05/05 02:43:48;;;;;;;;;2.00;2.00;;;;;;;;2011381;27;2754419;-74
2023/05/05 02:45:04;;;;;;;;;2.83;2.83;;;;;;;;2061938;27;2750261;-74
2023/05/05 02:46:18;;;;;;;;;5.33;1.67;;;;;;;;2039390;27;2741924;-74
2023/05/05 02:47:37;;;;;;;;;3.83;3.83;;;;;;;;2044956;27;2746588;-74
2023/05/05 02:48:50;;;;;;;;;1.50;1.50;;;;;;;;2039153;27;2731547;-74
2023/05/05 02:50:01;;;;;;;;;2.00;2.00;;;;;;;;2020302;27;2741975;-74
2023/05/05 02:51:12;;;;;;;;;2.00;2.00;;;;;;;;2066722;27;2738830;-74
2023/05/05 02:52:25;;;;;;;;;3.17;3.00;;;;;;;;2044505;27;2746129;-74
2023/05/05 02:53:38;;;;;;;;;5.83;2.67;;;;;;;;2046970;27;2744046;-74
2023/05/05 02:54:52;;;;;;;;;2.50;2.33;;;;;;;;2044359;27;2736742;-74
2023/05/05 02:56:23;;;;;;;;;3.33;2.50;;;;;;;;2043418;27;2740914;-74
2023/05/05 02:57:36;;;;;;;;;2.00;2.00;;;;;;;;2011961;27;2752393;-74
2023/05/05 02:58:59;;;;;;;;;2.33;2.33;;;;;;;;2060125;27;2737753;-74
2023/05/05 03:00:17;;;;;;;;;3.83;3.33;;;;;;;;2041239;27;2742973;-74
2023/05/05 03:01:53;;;;;;;;;2.00;2.00;;;;;;;;2038269;27;2733603;-74
2023/05/05 03:03:29;;;;;;;;;3.33;2.83;;;;;;;;2035052;27;2741985;-74
2023/05/05 03:04:55;;;;;;;;;2.00;2.00;;;;;;;;2038668;27;2747192;-74
2023/05/05 03:06:16;;;;;;;;;3.33;3.00;;;;;;;;2039141;27;2744027;-74
2023/05/05 03:07:29;;;;;;;;;3.00;2.00;;;;;;;;2035738;27;2746096;-74
2023/05/05 03:08:54;;;;;;;;;3.00;2.67;;;;;;;;2031750;27;2750268;-74
2023/05/05 03:10:10;;;;;;;;;3.17;3.00;;;;;;;;2031406;27;2733591;-74
2023/05/05 03:11:30;;;;;;;;;2.00;2.00;;;;;;;;2057357;27;2733631;-74
2023/05/05 03:12:53;;;;;;;;;1.00;0.67;;;;;;;;2034593;27;2727337;-74
2023/05/05 03:14:11;;;;;;;;;3.50;2.00;;;;;;;;2064733;27;2748598;-74
2023/05/05 03:15:30;;;;;;;;;4.50;3.00;;;;;;;;2036339;27;2749239;-74
2023/05/05 03:16:43;;;;;;;;;5.50;4.17;;;;;;;;2040083;27;2748177;-74
2023/05/05 03:17:57;;;;;;;;;2.33;2.33;;;;;;;;2045804;27;2747163;-74
2023/05/05 03:19:13;;;;;;;;;4.67;2.33;;;;;;;;2038974;27;2733619;-74
2023/05/05 03:20:26;;;;;;;;;2.00;2.00;;;;;;;;2038273;27;2743004;-74
2023/05/05 03:21:39;;;;;;;;;4.50;2.00;;;;;;;;2042290;27;2746120;-74
2023/05/05 03:22:53;;;;;;;;;2.17;2.17;;;;;;;;2046817;27;2748527;-74
2023/05/05 03:24:16;;;;;;;;;2.00;2.00;;;;;;;;2038253;27;2744059;-74
2023/05/05 03:25:41;;;;;;;;;2.50;2.00;;;;;;;;2040571;27;2744053;-74
2023/05/05 03:26:54;;;;;;;;;3.00;3.00;;;;;;;;2046053;27;2737792;-74
2023/05/05 03:28:07;;;;;;;;;1.17;1.17;;;;;;;;2061967;27;2729441;-74
2023/05/05 03:29:20;;;;;;;;;3.67;2.00;;;;;;;;2031119;27;2730481;-74
2023/05/05 03:30:33;;;;;;;;;2.33;2.33;;;;;;;;2029327;27;2734648;-74
2023/05/05 03:31:46;;;;;;;;;5.00;2.50;;;;;;;;2031099;27;2739888;-74
2023/05/05 03:32:59;;;;;;;;;2.50;2.50;;;;;;;;2038711;27;2736157;-74
2023/05/05 03:34:09;;;;;;;;;3.00;3.00;;;;;;;;2011827;27;2744034;-74
2023/05/05 03:35:20;;;;;;;;;3.00;2.67;;;;;;;;2060254;27;2737762;-74
2023/05/05 03:36:34;;;;;;;;;2.67;2.67;;;;;;;;2061146;27;2733682;-74
2023/05/05 03:37:47;;;;;;;;;1.67;1.33;;;;;;;;2069884;27;2740917;-74
2023/05/05 03:39:00;;;;;;;;;3.33;3.33;;;;;;;;2046567;27;2736052;-74
2023/05/05 03:40:13;;;;;;;;;2.17;2.17;;;;;;;;2046969;27;2745056;-74
2023/05/05 03:41:26;;;;;;;;;3.33;2.83;;;;;;;;2046257;27;2742340;-74
2023/05/05 03:42:36;;;;;;;;;2.00;2.00;;;;;;;;2011637;27;2747502;-74
2023/05/05 03:43:47;;;;;;;;;5.00;3.00;;;;;;;;2061938;27;2729436;-74
2023/05/05 03:45:01;;;;;;;;;2.50;2.50;;;;;;;;2065569;27;2750840;-74
2023/05/05 03:46:14;;;;;;;;;3.00;2.00;;;;;;;;2047829;27;2738837;-74
2023/05/05 03:47:27;;;;;;;;;3.00;3.00;;;;;;;;2039844;27;2737788;-74
2023/05/05 03:48:41;;;;;;;;;3.00;2.17;;;;;;;;2040147;27;2746113;-74
2023/05/05 03:49:54;;;;;;;;;3.67;2.33;;;;;;;;2046168;27;2734012;-74
2023/05/05 03:51:04;;;;;;;;;3.00;2.00;;;;;;;;2019180;27;2749757;-74
2023/05/05 03:52:15;;;;;;;;;2.00;2.00;;;;;;;;2069149;27;2744030;-74
2023/05/05 03:53:25;;;;;;;;;4.33;3.33;;;;;;;;2043939;27;2749251;-74
2023/05/05 03:54:36;;;;;;;;;3.00;3.00;;;;;;;;2068907;27;2751311;-74
2023/05/05 03:55:47;;;;;;;;;4.67;3.00;;;;;;;;2035616;27;2739905;-74
2023/05/05 03:56:58;;;;;;;;;1.00;1.00;;;;;;;;2060989;27;2726802;-74
2023/05/05 03:58:11;;;;;;;;;5.33;4.00;;;;;;;;2069798;27;2750756;-74
2023/05/05 03:59:24;;;;;;;;;3.83;3.83;;;;;;;;2036523;27;2746171;-74
2023/05/05 04:00:37;;;;;;;;;4.17;2.00;;;;;;;;2028278;28;2745093;-74
2023/05/05 04:01:50;;;;;;;;;3.83;3.00;;;;;;;;2022091;27;2740907;-74
2023/05/05 04:03:03;;;;;;;;;2.67;2.67;;;;;;;;2038792;27;2747144;-74
2023/05/05 04:04:16;;;;;;;;;3.67;3.67;;;;;;;;2045837;27;2746137;-74
2023/05/05 04:05:29;;;;;;;;;4.50;3.00;;;;;;;;2046576;27;2746106;-74
2023/05/05 04:06:42;;;;;;;;;3.00;3.00;;;;;;;;2036613;27;2732637;-74
2023/05/05 04:07:56;;;;;;;;;3.00;2.83;;;;;;;;2039044;27;2734669;-74
2023/05/05 04:09:10;;;;;;;;;4.00;3.17;;;;;;;;2043327;27;2741931;-74
2023/05/05 04:10:23;;;;;;;;;2.33;2.33;;;;;;;;2034574;27;2736217;-74
2023/05/05 04:11:36;;;;;;;;;3.33;3.33;;;;;;;;2027909;27;2746097;-74
2023/05/05 04:12:49;;;;;;;;;4.00;2.00;;;;;;;;2031301;27;2732561;-74
2023/05/05 04:14:02;;;;;;;;;3.00;3.00;;;;;;;;2064071;27;2737766;-74
2023/05/05 04:15:15;;;;;;;;;4.33;3.00;;;;;;;;2042050;27;2736744;-74
2023/05/05 04:16:29;;;;;;;;;4.67;2.33;;;;;;;;2036916;27;2750280;-74
2023/05/05 04:17:42;;;;;;;;;5.17;3.17;;;;;;;;2030075;27;2742973;-74
2023/05/05 04:18:55;;;;;;;;;4.17;2.33;;;;;;;;2038987;27;2732584;-74
2023/05/05 04:20:08;;;;;;;;;5.00;3.00;;;;;;;;2045579;27;2748181;-74
2023/05/05 04:21:21;;;;;;;;;5.50;4.67;;;;;;;;2045976;27;2742997;-74
2023/05/05 04:22:32;;;;;;;;;3.00;3.00;;;;;;;;2018515;27;2750319;-74
2023/05/05 04:23:42;;;;;;;;;3.00;3.00;;;;;;;;2069395;27;2729472;-74
2023/05/05 04:24:55;;;;;;;;;3.33;2.00;;;;;;;;2060265;27;2737777;-74
2023/05/05 04:26:08;;;;;;;;;4.33;4.33;;;;;;;;2053744;27;2744026;-74
2023/05/05 04:27:19;;;;;;;;;4.67;4.67;;;;;;;;2009198;27;2745131;-74
2023/05/05 04:28:30;;;;;;;;;5.33;4.00;;;;;;;;2058909;27;2752369;-74
2023/05/05 04:29:41;;;;;;;;;3.00;3.00;;;;;;;;2067554;27;2750273;-74
2023/05/05 04:30:51;;;;;;;;;5.00;4.00;;;;;;;;2042576;27;2737772;-74
2023/05/05 04:32:03;;;;;;;;;5.75;3.25;;;;;;;;2067965;27;2746148;-73
2023/05/05 04:33:16;;;;;;;;;4.83;3.67;;;;;;;;2061921;27;2737777;-73
2023/05/05 04:34:29;;;;;;;;;2.67;2.67;;;;;;;;2043330;27;2753430;-73
2023/05/05 04:35:42;;;;;;;;;3.50;3.33;;;;;;;;2046256;27;2739851;-74
2023/05/05 04:36:52;;;;;;;;;4.00;4.00;;;;;;;;2018851;27;2752477;-74
2023/05/05 04:38:03;;;;;;;;;3.00;3.00;;;;;;;;2068469;27;2740918;-74
2023/05/05 04:39:13;;;;;;;;;5.00;3.67;;;;;;;;2033725;27;2748262;-74
2023/05/05 04:40:25;;;;;;;;;3.00;3.00;;;;;;;;2059777;27;2745090;-74
2023/05/05 04:41:38;;;;;;;;;1.67;1.67;;;;;;;;2069972;27;2742352;-74
2023/05/05 04:42:51;;;;;;;;;0.00;0.00;;;;;;;;2040549;27;2734633;-74
2023/05/05 04:44:01;;;;;;;;;7.67;4.00;;;;;;;;2035792;27;2754438;-74
2023/05/05 04:45:12;;;;;;;;;5.33;3.00;;;;;;;;2051738;27;2737781;-74
2023/05/05 04:46:25;;;;;;;;;4.00;2.17;;;;;;;;2055886;27;2753418;-74
2023/05/05 04:47:39;;;;;;;;;4.33;3.17;;;;;;;;2038244;27;2746118;-74
2023/05/05 04:48:52;;;;;;;;;3.00;3.00;;;;;;;;2039357;27;2724751;-74
2023/05/05 04:50:02;;;;;;;;;4.00;4.00;;;;;;;;2018967;27;2741946;-74
2023/05/05 04:51:13;;;;;;;;;3.00;2.67;;;;;;;;2059461;27;2735712;-74
2023/05/05 04:52:25;;;;;;;;;4.20;3.20;;;;;;;;2060511;27;2738831;-74
2023/05/05 04:53:38;;;;;;;;;3.83;3.17;;;;;;;;2047058;27;2739875;-74
2023/05/05 04:54:51;;;;;;;;;5.00;3.33;;;;;;;;2041723;27;2752356;-74
2023/05/05 04:56:04;;;;;;;;;4.17;3.17;;;;;;;;2037520;27;2735680;-74
2023/05/05 04:57:17;;;;;;;;;4.83;3.00;;;;;;;;2045216;27;2744518;-74
2023/05/05 04:58:28;;;;;;;;;5.00;3.00;;;;;;;;2018363;27;2748247;-74
2023/05/05 04:59:39;;;;;;;;;2.00;2.00;;;;;;;;2067764;27;2740925;-74
2023/05/05 05:00:49;;;;;;;;;3.00;3.00;;;;;;;;2029466;27;2739852;-74
2023/05/05 05:02:00;;;;;;;;;3.67;3.00;;;;;;;;2046410;27;2743999;-74
2023/05/05 05:03:13;;;;;;;;;6.83;4.00;;;;;;;;2052367;27;2743021;-74
2023/05/05 05:04:26;;;;;;;;;5.00;2.50;;;;;;;;2044869;28;2733614;-74
2023/05/05 05:05:39;;;;;;;;;4.00;4.00;;;;;;;;2032976;27;2747175;-74
2023/05/05 05:06:52;;;;;;;;;6.83;4.50;;;;;;;;2040570;27;2750279;-74
2023/05/05 05:08:05;;;;;;;;;4.83;4.83;;;;;;;;2037643;27;2745470;-74
2023/05/05 05:09:15;;;;;;;;;6.00;3.00;;;;;;;;2019682;27;2746140;-74
2023/05/05 05:10:27;;;;;;;;;4.00;3.00;;;;;;;;2068655;27;2735690;-74
2023/05/05 05:11:40;;;;;;;;;3.00;3.00;;;;;;;;2060433;27;2741935;-74
2023/05/05 05:12:53;;;;;;;;;7.00;5.40;;;;;;;;2033382;27;2704458;-74
2023/05/05 05:14:06;;;;;;;;;4.00;3.00;;;;;;;;2045160;27;2742990;-74
2023/05/05 05:15:16;;;;;;;;;5.33;3.00;;;;;;;;2012433;27;2750269;-74
2023/05/05 05:16:27;;;;;;;;;4.00;3.00;;;;;;;;2060551;27;2741932;-74
2023/05/05 05:17:40;;;;;;;;;4.00;4.00;;;;;;;;2051597;27;2744023;-74
2023/05/05 05:18:53;;;;;;;;;4.00;4.00;;;;;;;;2054543;27;2735716;-74
2023/05/05 05:20:04;;;;;;;;;4.00;3.00;;;;;;;;2011403;27;2754523;-74
2023/05/05 05:21:16;;;;;;;;;2.00;2.00;;;;;;;;2070417;27;2728414;-74
2023/05/05 05:22:30;;;;;;;;;6.50;3.50;;;;;;;;2038055;27;2744026;-74
2023/05/05 05:23:40;;;;;;;;;6.00;3.33;;;;;;;;2011510;27;2752348;-74
2023/05/05 05:24:51;;;;;;;;;4.00;3.00;;;;;;;;2068540;27;2739849;-74
2023/05/05 05:26:01;;;;;;;;;4.00;4.00;;;;;;;;2043876;27;2736852;-74
2023/05/05 05:27:12;;;;;;;;;5.00;3.00;;;;;;;;2044739;27;2748203;-74
2023/05/05 05:28:23;;;;;;;;;3.00;3.00;;;;;;;;2052277;27;2748194;-74
2023/05/05 05:29:33;;;;;;;;;3.33;3.33;;;;;;;;2042277;27;2754451;-74
2023/05/05 05:30:44;;;;;;;;;4.67;4.00;;;;;;;;2060601;27;2750319;-74
2023/05/05 05:31:55;;;;;;;;;4.00;4.00;;;;;;;;2059993;27;2737778;-74
2023/05/05 05:33:05;;;;;;;;;8.33;4.00;;;;;;;;2034489;27;2745141;-74
2023/05/05 05:34:16;;;;;;;;;4.00;3.00;;;;;;;;2060525;27;2750351;-74
2023/05/05 05:35:30;;;;;;;;;6.33;4.17;;;;;;;;2061309;27;2749222;-74
2023/05/05 05:36:43;;;;;;;;;4.00;4.00;;;;;;;;2056854;27;2749230;-74
2023/05/05 05:37:56;;;;;;;;;5.67;3.33;;;;;;;;2037577;27;2748193;-74
2023/05/05 05:39:09;;;;;;;;;4.67;4.00;;;;;;;;2036161;27;2737789;-74
2023/05/05 05:40:22;;;;;;;;;3.83;3.83;;;;;;;;2036722;27;2754441;-74
2023/05/05 05:41:35;;;;;;;;;3.17;3.17;;;;;;;;2044637;27;2739882;-74
2023/05/05 05:42:45;;;;;;;;;4.00;4.00;;;;;;;;2010202;27;2750283;-74
2023/05/05 05:43:56;;;;;;;;;5.00;3.00;;;;;;;;2056738;27;2754537;-74
2023/05/05 05:45:07;;;;;;;;;4.00;4.00;;;;;;;;2031310;27;3467944;-74
2023/05/05 05:46:18;;;;;;;;;5.50;4.00;;;;;;;;2062483;27;2746118;-74
2023/05/05 05:47:31;;;;;;;;;5.00;3.17;;;;;;;;2065428;27;2734647;-74
2023/05/05 05:48:41;;;;;;;;;5.00;4.00;;;;;;;;2004220;27;2752357;-74
2023/05/05 05:49:52;;;;;;;;;4.00;4.00;;;;;;;;2050915;27;2734114;-74
2023/05/05 05:51:05;;;;;;;;;4.20;4.00;;;;;;;;2060722;27;2745157;-74
2023/05/05 05:52:18;;;;;;;;;7.33;6.00;;;;;;;;2037699;27;2743004;-74
2023/05/05 05:53:31;;;;;;;;;7.17;6.00;;;;;;;;2037155;27;2732568;-74
2023/05/05 05:54:44;;;;;;;;;3.33;3.33;;;;;;;;2036134;27;2750348;-74
2023/05/05 05:55:57;;;;;;;;;4.83;4.17;;;;;;;;2034556;27;2741959;-74
2023/05/05 05:57:10;;;;;;;;;3.50;2.50;;;;;;;;2038034;27;2734647;-74
2023/05/05 05:58:23;;;;;;;;;3.33;3.00;;;;;;;;2037468;27;2738139;-74
2023/05/05 05:59:36;;;;;;;;;6.17;3.50;;;;;;;;2044236;27;2740202;-74
2023/05/05 06:00:49;;;;;;;;;3.17;3.17;;;;;;;;2042001;27;2744050;-74
2023/05/05 06:02:03;;;;;;;;;4.33;3.33;;;;;;;;2044877;27;2751300;-74
2023/05/05 06:03:16;;;;;;;;;4.00;4.00;;;;;;;;2045668;27;2744100;-74
2023/05/05 06:04:30;;;;;;;;;2.17;2.17;;;;;;;;2035573;27;2746216;-74
2023/05/05 06:05:40;;;;;;;;;4.00;4.00;;;;;;;;2004136;27;2750271;-74
2023/05/05 06:06:51;;;;;;;;;2.33;2.33;;;;;;;;2056291;27;2746102;-74
2023/05/05 06:08:04;;;;;;;;;3.50;3.50;;;;;;;;2053980;27;2733669;-74
2023/05/05 06:09:17;;;;;;;;;3.50;3.50;;;;;;;;2063308;27;2744035;-73
2023/05/05 06:10:30;;;;;;;;;3.83;3.83;;;;;;;;2040112;27;2739960;-73
2023/05/05 06:11:40;;;;;;;;;3.00;3.00;;;;;;;;2019593;27;2754930;-73
2023/05/05 06:12:51;;;;;;;;;4.00;3.67;;;;;;;;2066809;27;2751342;-73
2023/05/05 06:14:02;;;;;;;;;3.67;3.00;;;;;;;;2067803;27;2742396;-73
2023/05/05 06:15:13;;;;;;;;;6.00;3.00;;;;;;;;2042377;27;3465873;-73
2023/05/05 06:16:24;;;;;;;;;2.00;2.00;;;;;;;;2068856;27;2749279;-73
2023/05/05 06:17:36;;;;;;;;;3.00;3.00;;;;;;;;2062023;27;2736760;-72
2023/05/05 06:18:46;;;;;;;;;4.33;3.00;;;;;;;;2019457;27;2744036;-72
2023/05/05 06:19:57;;;;;;;;;2.00;2.00;;;;;;;;2064987;27;2737783;-73
2023/05/05 06:21:07;;;;;;;;;6.00;3.33;;;;;;;;2042590;27;2752350;-73
2023/05/05 06:22:18;;;;;;;;;3.00;3.00;;;;;;;;2069699;27;2737777;-73
2023/05/05 06:23:31;;;;;;;;;2.60;2.60;;;;;;;;2069227;27;2750289;-73
2023/05/05 06:24:44;;;;;;;;;3.00;2.00;;;;;;;;2034418;27;2746130;-73
2023/05/05 06:25:57;;;;;;;;;2.83;2.33;;;;;;;;2033704;27;2752417;-73
2023/05/05 06:27:10;;;;;;;;;2.50;2.50;;;;;;;;2036703;27;2750320;-73
2023/05/05 06:28:23;;;;;;;;;4.67;2.00;;;;;;;;2032570;27;2746102;-73
2023/05/05 06:29:36;;;;;;;;;2.67;2.67;;;;;;;;2026936;27;2739929;-73
2023/05/05 06:30:50;;;;;;;;;2.67;2.67;;;;;;;;2031260;27;2738331;-72
2023/05/05 06:32:06;;;;;;;;;1.33;1.33;;;;;;;;2039279;27;2727460;-73
2023/05/05 06:33:19;;;;;;;;;3.00;2.00;;;;;;;;2043565;27;2750292;-73
2023/05/05 06:34:32;;;;;;;;;3.83;1.00;;;;;;;;2040513;27;2730482;-73
2023/05/05 06:35:46;;;;;;;;;4.50;2.17;;;;;;;;2043714;27;2746204;-73
2023/05/05 06:36:59;;;;;;;;;2.17;2.17;;;;;;;;2030014;28;2748209;-72
2023/05/05 06:38:11;;;;;;;;;3.00;2.33;;;;;;;;2011142;27;2747148;-72
2023/05/05 06:39:24;;;;;;;;;1.67;1.67;;;;;;;;2066142;27;2752344;-73
2023/05/05 06:40:37;;;;;;;;;1.00;1.00;;;;;;;;2035730;27;2722245;-73
2023/05/05 06:41:48;;;;;;;;;2.00;2.00;;;;;;;;2022004;27;2754432;-73
2023/05/05 06:42:59;;;;;;;;;2.00;2.00;;;;;;;;2048441;27;2749219;-73
2023/05/05 06:44:10;;;;;;;;;3.33;2.67;;;;;;;;2061856;27;2744071;-73
2023/05/05 06:45:23;;;;;;;;;3.17;1.67;;;;;;;;2069827;27;2737817;-73
2023/05/05 06:46:36;;;;;;;;;3.83;2.67;;;;;;;;2042684;27;2731539;-73
2023/05/05 06:47:46;;;;;;;;;5.33;5.33;;;;;;;;2020109;27;2752360;-73
2023/05/05 06:48:57;;;;;;;;;4.67;4.00;;;;;;;;2052353;27;2746183;-73
2023/05/05 06:50:08;;;;;;;;;4.00;4.00;;;;;;;;2046641;27;2754442;-73
2023/05/05 06:51:21;;;;;;;;;3.80;3.80;;;;;;;;2061059;27;2752422;-73
2023/05/05 06:52:31;;;;;;;;;4.00;4.00;;;;;;;;2043260;27;2748240;-73
2023/05/05 06:53:42;;;;;;;;;5.67;3.00;;;;;;;;2068877;27;2744026;-73
2023/05/05 06:54:55;;;;;;;;;2.60;2.60;;;;;;;;2060044;27;2741947;-73
2023/05/05 06:56:05;;;;;;;;;2.33;2.00;;;;;;;;2010356;27;2748218;-73
2023/05/05 06:57:16;;;;;;;;;6.00;3.00;;;;;;;;2064618;27;2739855;-73
2023/05/05 06:58:29;;;;;;;;;2.33;2.33;;;;;;;;2065413;27;2735720;-73
2023/05/05 06:59:42;;;;;;;;;4.33;3.50;;;;;;;;2070033;27;2744046;-73
2023/05/05 07:00:52;;;;;;;;;2.00;2.00;;;;;;;;2014398;27;2750277;-73
2023/05/05 07:02:04;;;;;;;;;5.00;2.25;;;;;;;;2059679;27;2739900;-73
2023/05/05 07:03:17;;;;;;;;;2.50;2.50;;;;;;;;2047113;27;2751362;-73
2023/05/05 07:04:30;;;;;;;;;5.50;2.83;;;;;;;;2044329;27;2740930;-74
2023/05/05 07:05:43;;;;;;;;;7.17;3.50;;;;;;;;2040380;27;2745113;-74
2023/05/05 07:06:57;;;;;;;;;4.00;2.33;;;;;;;;2043366;27;2738848;-73
2023/05/05 07:08:08;;;;;;;;;6.00;4.00;;;;;;;;2008376;27;2755073;-73
2023/05/05 07:09:19;;;;;;;;;6.00;3.00;;;;;;;;2035655;27;2750335;-73